Time;durP1;ratioP1;P1;durP2;ratioP2;P2;SDS_P1;SDS_P2;PMS_P1;PMS_P2;Temp;Humidity;BMP_temperature;BMP_pressure;BME280_temperature;BME280_humidity;BME280_pressure;Samples;Min_cycle;Max_cycle;Signal;HPM_P1;HPM_P2
2022/10/18 00:02:14;;;;;;;10.88;9.55;;;;;;;15.57;100.00;101877.50;4894897;29;20051;-75
2022/10/18 00:04:40;;;;;;;13.93;9.68;;;;;;;15.57;100.00;101879.25;4887490;29;20054;-76
2022/10/18 00:07:07;;;;;;;13.18;9.27;;;;;;;15.54;100.00;101872.25;4889535;29;20047;-75
2022/10/18 00:09:33;;;;;;;10.75;8.13;;;;;;;15.53;100.00;101865.22;4909680;29;20048;-77
2022/10/18 00:12:00;;;;;;;11.02;8.82;;;;;;;15.52;100.00;101874.00;4908672;29;20399;-76
2022/10/18 00:14:26;;;;;;;10.88;8.77;;;;;;;15.50;100.00;101874.03;4891620;29;20048;-77
2022/10/18 00:16:53;;;;;;;11.88;9.55;;;;;;;15.47;100.00;101871.41;4911363;29;20076;-77
2022/10/18 00:19:19;;;;;;;12.93;10.10;;;;;;;15.46;100.00;101874.06;4911658;29;20400;-75
2022/10/18 00:21:46;;;;;;;12.90;8.68;;;;;;;15.45;100.00;101880.22;4901970;29;20062;-80
2022/10/18 00:24:12;;;;;;;10.15;8.82;;;;;;;15.43;100.00;101874.13;4910012;29;20055;-76
2022/10/18 00:26:39;;;;;;;11.10;8.88;;;;;;;15.42;100.00;101886.41;4905106;29;20502;-81
2022/10/18 00:29:06;;;;;;;12.23;9.52;;;;;;;15.39;100.00;101887.31;4907243;29;20062;-77
2022/10/18 00:31:36;;;;;;;11.73;9.55;;;;;;;15.38;100.00;101889.97;4905353;29;20060;-76
2022/10/18 00:34:11;;;;;;;12.35;9.32;;;;;;;15.36;100.00;101892.63;4913869;29;20075;-75
2022/10/18 00:36:38;;;;;;;11.18;8.57;;;;;;;15.34;100.00;101881.25;4903500;29;20064;-77
2022/10/18 00:39:06;;;;;;;10.07;8.68;;;;;;;15.34;100.00;101885.63;4904492;29;20404;-77
2022/10/18 00:41:36;;;;;;;11.52;9.23;;;;;;;15.33;100.00;101897.94;4930399;29;20046;-75
2022/10/18 00:44:27;;;;;;;10.88;9.77;;;;;;;15.33;100.00;101892.66;4930433;29;20111;-77
2022/10/18 00:47:00;;;;;;;13.75;9.65;;;;;;;15.32;100.00;101900.59;4910347;29;20054;-76
2022/10/18 00:49:32;;;;;;;7.97;7.28;;;;;;;15.30;100.00;101892.69;4909768;29;20060;-76
2022/10/18 00:52:05;;;;;;;16.42;9.55;;;;;;;15.32;100.00;101903.25;4914098;29;20055;-77
2022/10/18 00:54:38;;;;;;;12.57;9.30;;;;;;;15.31;100.00;101894.44;4910001;29;20041;-81
2022/10/18 00:57:05;;;;;;;13.23;8.18;;;;;;;15.31;100.00;101902.34;4926190;29;20426;-79
2022/10/18 00:59:32;;;;;;;9.98;7.78;;;;;;;15.31;100.00;101906.75;4926467;29;20043;-79
2022/10/18 01:01:59;;;;;;;9.75;7.95;;;;;;;15.31;100.00;101905.00;4910716;29;20047;-77
2022/10/18 01:04:25;;;;;;;14.05;9.90;;;;;;;15.29;100.00;101901.50;4913893;29;20044;-77
2022/10/18 01:07:21;;;;;;;10.90;9.52;;;;;;;15.29;100.00;101903.25;4912227;29;20051;-77
2022/10/18 01:10:10;;;;;;;15.02;10.98;;;;;;;15.29;100.00;101897.97;4934964;29;20044;-77
2022/10/18 01:13:29;;;;;;;10.85;9.23;;;;;;;15.27;100.00;101900.63;4908289;29;20786;-76
2022/10/18 01:16:32;;;;;;;8.73;7.65;;;;;;;15.26;100.00;101901.50;4918069;29;20051;-79
2022/10/18 01:19:43;;;;;;;6.90;6.20;;;;;;;15.26;100.00;101904.16;4914965;29;20129;-79
2022/10/18 01:22:39;;;;;;;12.18;8.10;;;;;;;15.28;100.00;101909.41;4913719;29;20060;-77
2022/10/18 01:25:57;;;;;;;11.13;9.00;;;;;;;15.31;100.00;101910.25;4920959;29;20495;-78
2022/10/18 01:28:54;;;;;;;7.68;6.88;;;;;;;15.33;100.00;101902.31;4912981;29;20048;-81
2022/10/18 01:31:38;;;;;;;15.13;9.82;;;;;;;15.33;100.00;101900.59;4903753;29;20403;-77
2022/10/18 01:34:08;;;;;;;8.13;7.15;;;;;;;15.33;100.00;101891.78;4909056;29;20067;-79
2022/10/18 01:36:42;;;;;;;7.28;6.10;;;;;;;15.32;100.00;101883.00;4935002;29;20040;-77
2022/10/18 01:39:18;;;;;;;8.55;6.47;;;;;;;15.31;100.00;101869.81;4900095;29;20620;-77
2022/10/18 01:41:47;;;;;;;9.18;7.97;;;;;;;15.27;100.00;101876.03;4912702;29;20041;-76
2022/10/18 01:44:20;;;;;;;10.80;7.60;;;;;;;15.23;100.00;101875.16;4914164;29;20048;-78
2022/10/18 01:46:47;;;;;;;10.90;9.30;;;;;;;15.19;100.00;101869.03;4913494;29;20396;-81
2022/10/18 01:49:14;;;;;;;9.82;8.02;;;;;;;15.16;100.00;101865.53;4909258;29;20072;-77
2022/10/18 01:51:40;;;;;;;9.68;8.55;;;;;;;15.14;100.00;101868.19;4907490;29;20036;-77
2022/10/18 01:54:07;;;;;;;7.93;6.50;;;;;;;15.15;100.00;101867.31;4930597;29;20807;-77
2022/10/18 01:56:55;;;;;;;11.02;8.85;;;;;;;15.14;100.00;101867.34;4909898;29;20045;-75
2022/10/18 01:59:39;;;;;;;8.60;7.70;;;;;;;15.09;100.00;101864.72;4913936;29;20199;-77
2022/10/18 02:02:47;;;;;;;8.43;7.47;;;;;;;15.04;100.00;101861.25;4904663;29;20504;-76
2022/10/18 02:05:33;;;;;;;7.95;6.68;;;;;;;15.00;100.00;101865.66;4913944;29;20044;-77
2022/10/18 02:08:14;;;;;;;9.43;7.60;;;;;;;14.97;100.00;101872.75;4905427;29;20503;-75
2022/10/18 02:11:11;;;;;;;10.40;7.57;;;;;;;14.98;100.00;101861.28;4922556;29;20070;-75
2022/10/18 02:13:42;;;;;;;9.05;8.15;;;;;;;15.00;100.00;101851.63;4918984;29;20052;-75
2022/10/18 02:16:17;;;;;;;10.15;9.13;;;;;;;15.05;100.00;101860.38;4908631;29;20052;-77
2022/10/18 02:18:55;;;;;;;9.55;8.02;;;;;;;15.07;100.00;101857.72;4905861;29;20054;-76
2022/10/18 02:21:23;;;;;;;10.18;9.15;;;;;;;15.05;100.00;101855.97;4912772;29;20063;-75
2022/10/18 02:23:50;;;;;;;11.45;8.57;;;;;;;15.03;100.00;101856.84;4913564;29;20063;-76
2022/10/18 02:26:17;;;;;;;13.90;10.43;;;;;;;15.00;100.00;101860.41;4924742;29;20395;-77
2022/10/18 02:28:44;;;;;;;12.07;8.38;;;;;;;14.97;100.00;101864.84;4907335;29;20128;-74
2022/10/18 02:31:29;;;;;;;10.20;8.48;;;;;;;14.95;100.00;101863.97;4912970;29;20055;-75
2022/10/18 02:34:22;;;;;;;12.55;9.90;;;;;;;14.91;100.00;101849.94;4914242;29;20056;-79
2022/10/18 02:37:00;;;;;;;10.75;8.35;;;;;;;14.88;100.00;101856.09;4912569;29;20062;-81
2022/10/18 02:39:35;;;;;;;14.90;10.45;;;;;;;14.83;100.00;101847.34;4911212;29;20238;-75
2022/10/18 02:42:05;;;;;;;10.88;9.07;;;;;;;14.80;100.00;101851.78;4930650;29;20040;-76
2022/10/18 02:44:35;;;;;;;13.25;10.02;;;;;;;14.75;100.00;101850.94;4909310;29;20515;-80
2022/10/18 02:47:02;;;;;;;12.50;10.98;;;;;;;14.73;100.00;101848.28;4908128;29;20050;-76
2022/10/18 02:49:28;;;;;;;14.75;11.40;;;;;;;14.75;100.00;101856.22;4911328;29;20048;-78
2022/10/18 02:51:55;;;;;;;16.80;13.10;;;;;;;14.78;100.00;101857.03;4911706;29;20055;-76
2022/10/18 02:54:22;;;;;;;17.35;12.90;;;;;;;14.81;100.00;101846.50;4901739;29;20052;-75
2022/10/18 02:56:49;;;;;;;12.95;10.38;;;;;;;14.82;100.00;101843.00;4913723;29;20044;-76
2022/10/18 02:59:16;;;;;;;19.25;13.20;;;;;;;14.82;100.00;101847.38;4928842;29;20391;-76
2022/10/18 03:01:42;;;;;;;18.98;14.18;;;;;;;14.83;100.00;101839.44;4907268;29;20044;-76
2022/10/18 03:04:09;;;;;;;17.75;12.77;;;;;;;14.82;100.00;101832.44;4918045;29;20119;-78
2022/10/18 03:06:36;;;;;;;13.52;10.55;;;;;;;14.82;100.00;101831.53;4915313;29;20052;-76
2022/10/18 03:09:04;;;;;;;17.17;13.45;;;;;;;14.79;100.00;101832.44;4915733;29;20052;-76
2022/10/18 03:11:32;;;;;;;15.40;11.45;;;;;;;14.78;100.00;101840.38;4914131;29;20063;-78
2022/10/18 03:13:58;;;;;;;11.20;8.55;;;;;;;14.76;100.00;101845.66;4904063;29;20036;-76
2022/10/18 03:16:25;;;;;;;11.10;9.95;;;;;;;14.76;100.00;101847.41;4912311;29;20492;-75
2022/10/18 03:18:51;;;;;;;12.55;11.30;;;;;;;14.75;100.00;101849.19;4934157;29;20123;-78
2022/10/18 03:21:18;;;;;;;10.52;9.52;;;;;;;14.75;100.00;101850.94;4907938;29;20053;-78
2022/10/18 03:23:44;;;;;;;19.13;13.13;;;;;;;14.74;100.00;101846.56;4883679;29;20037;-75
2022/10/18 03:26:11;;;;;;;15.18;10.40;;;;;;;14.73;100.00;101840.38;4897030;29;20085;-75
2022/10/18 03:28:37;;;;;;;20.40;13.00;;;;;;;14.72;100.00;101831.63;4913036;29;20044;-76
2022/10/18 03:31:05;;;;;;;13.30;11.32;;;;;;;14.71;100.00;101840.41;4907437;29;20049;-77
2022/10/18 03:33:33;;;;;;;20.50;14.20;;;;;;;14.71;100.00;101842.19;4906633;29;20385;-75
2022/10/18 03:36:00;;;;;;;16.90;12.15;;;;;;;14.69;100.00;101836.94;4899434;29;20147;-76
2022/10/18 03:38:27;;;;;;;20.42;14.63;;;;;;;14.67;100.00;101833.41;4909704;29;20052;-75
2022/10/18 03:40:53;;;;;;;17.27;12.77;;;;;;;14.67;100.00;101829.91;4894871;29;20044;-77
2022/10/18 03:43:20;;;;;;;15.77;12.07;;;;;;;14.68;100.00;101832.53;4910570;29;20040;-77
2022/10/18 03:45:46;;;;;;;16.35;10.90;;;;;;;14.66;100.00;101823.75;4896604;29;20048;-75
2022/10/18 03:48:13;;;;;;;25.35;15.65;;;;;;;14.64;100.00;101828.19;4910377;29;20048;-75
2022/10/18 03:50:39;;;;;;;25.33;16.70;;;;;;;14.62;100.00;101826.41;4907116;29;20468;-79
2022/10/18 03:53:06;;;;;;;29.08;17.52;;;;;;;14.60;100.00;101826.41;4910520;29;20574;-77
2022/10/18 03:55:32;;;;;;;20.23;13.77;;;;;;;14.59;100.00;101819.41;4894979;29;20557;-75
2022/10/18 03:57:59;;;;;;;17.48;13.40;;;;;;;14.56;100.00;101816.75;4910929;29;20045;-78
2022/10/18 04:00:26;;;;;;;14.25;10.82;;;;;;;14.55;100.00;101815.91;4892604;29;20766;-78
2022/10/18 04:02:53;;;;;;;16.73;11.57;;;;;;;14.53;100.00;101811.53;4894391;29;20040;-79
2022/10/18 04:05:19;;;;;;;21.95;15.90;;;;;;;14.52;100.00;101812.41;4911722;29;20048;-79
2022/10/18 04:07:46;;;;;;;16.48;12.73;;;;;;;14.50;100.00;101815.06;4894846;29;20063;-77
2022/10/18 04:10:12;;;;;;;15.55;12.50;;;;;;;14.49;100.00;101815.06;4912262;29;20051;-76
2022/10/18 04:12:40;;;;;;;16.27;11.07;;;;;;;14.49;100.00;101817.69;4898061;29;20048;-77
2022/10/18 04:15:07;;;;;;;13.30;11.65;;;;;;;14.46;100.00;101821.22;4894503;29;20267;-76
2022/10/18 04:17:33;;;;;;;20.85;15.43;;;;;;;14.45;100.00;101822.09;4915070;29;20047;-76
2022/10/18 04:20:05;;;;;;;21.38;13.38;;;;;;;14.45;100.00;101821.25;4897071;29;20483;-77
2022/10/18 04:22:32;;;;;;;21.55;15.75;;;;;;;14.43;100.00;101839.69;4899923;29;20080;-78
2022/10/18 04:24:59;;;;;;;18.45;13.43;;;;;;;14.43;100.00;101828.28;4900345;29;20074;-78
2022/10/18 04:27:25;;;;;;;26.13;17.02;;;;;;;14.43;100.00;101825.63;4910795;29;20044;-76
2022/10/18 04:29:52;;;;;;;20.92;15.27;;;;;;;14.44;100.00;101832.66;4897433;29;20400;-77
2022/10/18 04:32:18;;;;;;;17.80;12.68;;;;;;;14.44;100.00;101835.28;4915086;29;20051;-76
2022/10/18 04:34:45;;;;;;;21.90;14.70;;;;;;;14.44;100.00;101822.13;4907716;29;20040;-76
2022/10/18 04:37:11;;;;;;;21.40;14.48;;;;;;;14.42;100.00;101826.50;4894886;29;20495;-77
2022/10/18 04:39:39;;;;;;;17.02;13.20;;;;;;;14.39;100.00;101828.31;4916752;29;20750;-77
2022/10/18 04:42:06;;;;;;;21.65;14.50;;;;;;;14.39;100.00;101825.66;4898768;29;20055;-79
2022/10/18 04:44:33;;;;;;;18.52;14.70;;;;;;;14.38;100.00;101825.69;4911599;29;20128;-78
2022/10/18 04:46:59;;;;;;;20.83;14.73;;;;;;;14.36;100.00;101825.66;4908762;29;20055;-81
2022/10/18 04:49:26;;;;;;;25.80;16.75;;;;;;;14.35;100.00;101823.94;4909295;29;20055;-76
2022/10/18 04:51:53;;;;;;;21.02;15.15;;;;;;;14.35;100.00;101825.69;4899009;29;20048;-77
2022/10/18 04:54:19;;;;;;;19.75;13.70;;;;;;;14.34;100.00;101823.94;4910379;29;20048;-80
2022/10/18 04:56:46;;;;;;;13.88;10.77;;;;;;;14.33;100.00;101827.47;4913126;29;20586;-79
2022/10/18 04:59:12;;;;;;;20.10;14.57;;;;;;;14.32;100.00;101831.84;4887498;29;20130;-79
2022/10/18 05:01:39;;;;;;;18.73;13.90;;;;;;;14.32;100.00;101834.47;4912428;29;20052;-76
2022/10/18 05:04:05;;;;;;;16.60;12.15;;;;;;;14.32;100.00;101823.06;4898623;29;20135;-76
2022/10/18 05:06:31;;;;;;;24.45;16.58;;;;;;;14.32;100.00;101836.25;4911185;29;20399;-77
2022/10/18 05:08:58;;;;;;;14.43;11.80;;;;;;;14.28;100.00;101837.16;4914189;29;20060;-80
2022/10/18 05:11:24;;;;;;;25.90;15.60;;;;;;;14.30;100.00;101841.53;4911750;29;20063;-75
2022/10/18 05:13:51;;;;;;;15.30;12.40;;;;;;;14.32;100.00;101836.25;4900421;29;20056;-77
2022/10/18 05:16:18;;;;;;;21.40;13.90;;;;;;;14.32;100.00;101830.97;4909988;29;20048;-75
2022/10/18 05:18:44;;;;;;;17.38;13.52;;;;;;;14.30;100.00;101833.63;4909682;29;20678;-76
2022/10/18 05:21:15;;;;;;;15.50;11.50;;;;;;;14.29;100.00;101845.03;4893534;29;20144;-75
2022/10/18 05:23:41;;;;;;;22.92;15.88;;;;;;;14.32;100.00;101844.16;4909301;29;20055;-78
2022/10/18 05:26:08;;;;;;;27.10;18.17;;;;;;;14.33;100.00;101849.41;4908467;29;20044;-77
2022/10/18 05:28:36;;;;;;;18.33;14.40;;;;;;;14.35;100.00;101844.13;4898491;29;20570;-75
2022/10/18 05:31:07;;;;;;;25.00;17.35;;;;;;;14.37;100.00;101850.28;4900740;29;20040;-76
2022/10/18 05:33:34;;;;;;;19.52;16.15;;;;;;;14.36;100.00;101846.75;4924320;29;20044;-75
2022/10/18 05:36:01;;;;;;;25.73;17.23;;;;;;;14.36;100.00;101852.00;4930017;29;20058;-77
2022/10/18 05:38:29;;;;;;;21.90;15.95;;;;;;;14.34;100.00;101850.25;4897410;29;20058;-76
2022/10/18 05:40:57;;;;;;;20.35;15.43;;;;;;;14.32;100.00;101850.28;4911343;29;20052;-78
2022/10/18 05:43:23;;;;;;;23.55;17.55;;;;;;;14.30;100.00;101852.06;4910673;29;20047;-76
2022/10/18 05:45:50;;;;;;;22.13;14.55;;;;;;;14.28;100.00;101840.66;4906666;29;20045;-81
2022/10/18 05:48:18;;;;;;;25.80;18.23;;;;;;;14.28;100.00;101851.19;4909584;29;20053;-75
2022/10/18 05:50:45;;;;;;;27.00;18.30;;;;;;;14.28;100.00;101848.56;4910547;29;20052;-76
2022/10/18 05:53:11;;;;;;;30.80;20.25;;;;;;;14.27;100.00;101849.44;4909960;29;20045;-77
2022/10/18 05:55:38;;;;;;;28.52;20.10;;;;;;;14.26;100.00;101854.72;4911686;29;20040;-76
2022/10/18 05:58:04;;;;;;;24.50;16.98;;;;;;;14.25;100.00;101853.84;4913905;29;20045;-77
2022/10/18 06:00:31;;;;;;;28.40;17.48;;;;;;;14.25;100.00;101864.38;4906000;29;20044;-75
2022/10/18 06:02:58;;;;;;;35.35;19.55;;;;;;;14.23;100.00;101869.63;4914944;29;20132;-76
2022/10/18 06:05:24;;;;;;;26.83;17.95;;;;;;;14.26;100.00;101867.88;4898716;29;20507;-75
2022/10/18 06:07:51;;;;;;;29.45;18.17;;;;;;;14.26;100.00;101871.38;4898343;29;20048;-78
2022/10/18 06:10:17;;;;;;;32.08;19.88;;;;;;;14.26;100.00;101870.50;4914172;29;20052;-75
2022/10/18 06:12:44;;;;;;;26.67;18.30;;;;;;;14.26;100.00;101863.47;4909488;29;20048;-75
2022/10/18 06:15:10;;;;;;;22.15;16.63;;;;;;;14.25;100.00;101869.66;4914392;29;20052;-75
2022/10/18 06:17:37;;;;;;;26.65;18.25;;;;;;;14.26;100.00;101876.63;4896008;29;20058;-75
2022/10/18 06:20:04;;;;;;;27.23;18.77;;;;;;;14.27;100.00;101877.53;4904214;29;20041;-75
2022/10/18 06:22:30;;;;;;;29.38;19.75;;;;;;;14.27;100.00;101882.81;4912564;29;20107;-78
2022/10/18 06:24:57;;;;;;;28.42;18.92;;;;;;;14.29;100.00;101887.19;4912427;29;20054;-73
2022/10/18 06:27:23;;;;;;;35.08;21.33;;;;;;;14.30;100.00;101893.31;4915595;29;20056;-78
2022/10/18 06:29:50;;;;;;;30.10;19.42;;;;;;;14.33;100.00;101898.59;4912155;29;20048;-77
2022/10/18 06:32:17;;;;;;;32.08;20.50;;;;;;;14.36;100.00;101890.66;4908556;29;20048;-77
2022/10/18 06:34:43;;;;;;;25.88;19.23;;;;;;;14.37;100.00;101895.06;4909873;29;20056;-76
2022/10/18 06:37:10;;;;;;;28.13;19.30;;;;;;;14.38;100.00;101894.19;4921483;29;20044;-76
2022/10/18 06:39:36;;;;;;;32.30;20.83;;;;;;;14.36;100.00;101895.94;4913583;29;20130;-77
2022/10/18 06:42:03;;;;;;;30.65;19.52;;;;;;;14.37;100.00;101895.06;4908600;29;20048;-77
2022/10/18 06:44:30;;;;;;;26.20;18.42;;;;;;;14.38;100.00;101891.53;4912327;29;20046;-76
2022/10/18 06:46:56;;;;;;;25.23;16.50;;;;;;;14.40;100.00;101900.28;4910116;29;20048;-77
2022/10/18 06:49:23;;;;;;;23.55;16.35;;;;;;;14.41;100.00;101902.06;4912810;29;20044;-77
2022/10/18 06:51:49;;;;;;;33.53;18.85;;;;;;;14.43;100.00;101907.31;4912462;29;20040;-78
2022/10/18 06:54:16;;;;;;;23.48;17.60;;;;;;;14.43;100.00;101904.66;4932305;29;20131;-77
2022/10/18 06:56:43;;;;;;;25.33;17.05;;;;;;;14.46;100.00;101905.53;4910199;29;20108;-77
2022/10/18 06:59:09;;;;;;;26.65;18.98;;;;;;;14.46;100.00;101905.53;4910831;29;20765;-77
2022/10/18 07:01:36;;;;;;;24.73;16.90;;;;;;;14.48;100.00;101910.78;4905360;29;20049;-78
2022/10/18 07:04:02;;;;;;;25.52;19.08;;;;;;;14.47;100.00;101909.03;4911397;29;20044;-76
2022/10/18 07:06:29;;;;;;;25.30;17.08;;;;;;;14.47;100.00;101909.03;4909775;29;20103;-77
2022/10/18 07:08:57;;;;;;;26.48;19.00;;;;;;;14.47;100.00;101907.28;4904931;29;20050;-77
2022/10/18 07:11:26;;;;;;;22.17;16.45;;;;;;;14.49;100.00;101910.78;4912722;29;20047;-75
2022/10/18 07:13:59;;;;;;;19.23;15.45;;;;;;;14.52;100.00;101912.53;4912819;29;20131;-76
2022/10/18 07:16:26;;;;;;;28.27;18.52;;;;;;;14.56;100.00;101907.25;4902190;29;20092;-75
2022/10/18 07:18:52;;;;;;;23.92;16.00;;;;;;;14.63;100.00;101907.22;4929383;29;20040;-75
2022/10/18 07:21:24;;;;;;;27.55;18.40;;;;;;;14.66;100.00;101908.09;4923184;29;20063;-76
2022/10/18 07:23:52;;;;;;;24.83;17.33;;;;;;;14.70;100.00;101901.91;4907974;29;20046;-79
2022/10/18 07:26:28;;;;;;;38.47;23.65;;;;;;;14.74;100.00;101899.28;4901273;29;20045;-77
2022/10/18 07:29:00;;;;;;;31.75;19.60;;;;;;;14.78;100.00;101899.22;4909143;29;20040;-76
2022/10/18 07:31:29;;;;;;;37.78;24.13;;;;;;;14.81;100.00;101900.97;4922756;29;20498;-79
2022/10/18 07:33:56;;;;;;;28.75;19.02;;;;;;;14.85;100.00;101910.63;4924052;29;20059;-78
2022/10/18 07:36:24;;;;;;;28.25;18.80;;;;;;;14.86;100.00;101902.69;4909674;29;20058;-76
2022/10/18 07:38:54;;;;;;;35.55;20.67;;;;;;;14.92;100.00;101907.06;4909612;29;20059;-77
2022/10/18 07:41:21;;;;;;;25.02;17.02;;;;;;;14.92;100.00;101906.19;4900341;29;20044;-82
2022/10/18 07:43:50;;;;;;;26.88;18.15;;;;;;;15.00;100.00;101899.94;4907228;29;20140;-75
2022/10/18 07:46:19;;;;;;;28.23;20.25;;;;;;;15.07;100.00;101889.38;4910168;29;20139;-75
2022/10/18 07:48:46;;;;;;;27.45;19.83;;;;;;;15.11;100.00;101888.44;4909340;29;20052;-79
2022/10/18 07:51:13;;;;;;;35.30;21.30;;;;;;;15.17;100.00;101896.31;4904621;29;20704;-76
2022/10/18 07:53:40;;;;;;;34.08;20.42;;;;;;;15.24;100.00;101902.41;4905697;29;20040;-80
2022/10/18 07:56:14;;;;;;;36.63;20.25;;;;;;;15.30;100.00;101907.66;4903426;29;20134;-75
2022/10/18 07:58:45;;;;;;;35.75;21.27;;;;;;;15.38;100.00;101901.41;4920335;29;20045;-76
2022/10/18 08:01:13;;;;;;;26.77;18.83;;;;;;;15.53;100.00;101902.16;4911671;29;20048;-77
2022/10/18 08:03:41;;;;;;;24.05;18.42;;;;;;;15.74;100.00;101908.13;4897614;29;20400;-77
2022/10/18 08:06:09;;;;;;;28.77;20.00;;;;;;;15.93;100.00;101916.72;4906394;29;20527;-75
2022/10/18 08:08:38;;;;;;;28.15;18.67;;;;;;;16.16;100.00;101909.41;4909394;29;20068;-76
2022/10/18 08:11:11;;;;;;;28.45;17.90;;;;;;;16.41;100.00;101916.16;4910155;29;20052;-77
2022/10/18 08:13:38;;;;;;;27.23;19.63;;;;;;;16.57;100.00;101922.13;4927555;29;20052;-76
2022/10/18 08:16:09;;;;;;;28.17;19.52;;;;;;;16.66;100.00;101924.63;4912406;29;20071;-77
2022/10/18 08:18:39;;;;;;;31.58;21.33;;;;;;;16.72;100.00;101902.53;4912692;29;20052;-77
2022/10/18 08:21:09;;;;;;;26.35;18.38;;;;;;;16.84;100.00;101897.94;4909484;29;20078;-76
2022/10/18 08:23:36;;;;;;;29.67;19.27;;;;;;;17.03;100.00;101903.84;4915194;29;20467;-77
2022/10/18 08:26:10;;;;;;;33.53;19.70;;;;;;;17.01;100.00;101902.09;4928320;29;20052;-75
2022/10/18 08:28:37;;;;;;;24.23;16.65;;;;;;;16.99;100.00;101902.13;4909821;29;20479;-75
2022/10/18 08:31:06;;;;;;;30.20;18.95;;;;;;;16.97;100.00;101908.34;4911677;29;20036;-74
2022/10/18 08:33:34;;;;;;;28.52;18.20;;;;;;;16.85;100.00;101898.81;4928123;29;20040;-76
2022/10/18 08:36:04;;;;;;;29.77;18.63;;;;;;;16.62;100.00;101907.06;4906652;29;20399;-78
2022/10/18 08:38:35;;;;;;;27.70;16.67;;;;;;;16.46;100.00;101909.06;4905151;29;20052;-75
2022/10/18 08:41:34;;;;;;;25.63;15.68;;;;;;;16.32;100.00;101912.75;4898204;29;20139;-78
2022/10/18 08:44:23;;;;;;;27.60;17.48;;;;;;;16.17;100.00;101912.94;4886082;29;20075;-76
2022/10/18 08:46:54;;;;;;;28.95;17.95;;;;;;;16.12;100.00;101925.34;4912102;29;20130;-75
2022/10/18 08:49:27;;;;;;;23.35;16.73;;;;;;;16.05;100.00;101916.63;4931821;29;20041;-76
2022/10/18 08:51:56;;;;;;;26.42;15.70;;;;;;;16.00;100.00;101924.56;4911002;29;20044;-76
2022/10/18 08:54:37;;;;;;;23.45;16.77;;;;;;;15.93;100.00;101927.31;4908773;29;20052;-78
2022/10/18 08:57:12;;;;;;;25.75;16.73;;;;;;;15.86;100.00;101924.72;4912049;29;20044;-75
2022/10/18 08:59:41;;;;;;;29.02;16.25;;;;;;;15.83;100.00;101927.41;4909040;29;20067;-76
2022/10/18 09:02:19;;;;;;;24.85;14.40;;;;;;;15.89;100.00;101931.72;4910690;29;20066;-78
2022/10/18 09:05:37;;;;;;;26.80;16.05;;;;;;;15.96;100.00;101941.34;4901967;29;20132;-75
2022/10/18 09:08:36;;;;;;;25.90;16.63;;;;;;;16.05;100.00;101940.38;4924569;29;20044;-76
2022/10/18 09:11:14;;;;;;;26.40;16.52;;;;;;;16.05;100.00;101943.03;4909230;29;20051;-77
2022/10/18 09:14:18;;;;;;;30.95;17.48;;;;;;;16.07;100.00;101948.28;4921733;29;20048;-77
2022/10/18 09:17:22;;;;;;;26.17;16.27;;;;;;;16.08;100.00;101948.25;4927679;29;20048;-76
2022/10/18 09:20:28;;;;;;;23.00;17.92;;;;;;;16.11;100.00;101958.78;4905959;29;20050;-81
2022/10/18 09:23:17;;;;;;;25.65;17.25;;;;;;;16.09;100.00;101960.59;4906265;29;20076;-79
2022/10/18 09:26:01;;;;;;;25.15;16.42;;;;;;;16.12;100.00;101954.41;4908164;29;20369;-80
2022/10/18 09:28:47;;;;;;;25.90;18.73;;;;;;;16.16;100.00;101946.41;4911379;29;20052;-75
2022/10/18 09:31:40;;;;;;;29.67;18.38;;;;;;;16.17;100.00;101952.56;4913955;29;20068;-78
2022/10/18 09:34:26;;;;;;;28.00;17.13;;;;;;;16.26;100.00;101960.38;4911997;29;20045;-76
2022/10/18 09:36:54;;;;;;;28.38;18.27;;;;;;;16.41;100.00;101961.09;4913336;29;20049;-76
2022/10/18 09:39:35;;;;;;;25.50;18.27;;;;;;;16.61;100.00;101963.47;4913841;29;20108;-76
2022/10/18 09:42:34;;;;;;;25.73;17.10;;;;;;;16.73;100.00;101967.75;4912195;29;20044;-76
2022/10/18 09:45:20;;;;;;;28.42;17.05;;;;;;;16.79;100.00;101959.72;4928756;29;20092;-76
2022/10/18 09:48:13;;;;;;;36.50;18.65;;;;;;;16.87;100.00;101964.00;4912595;29;20040;-75
2022/10/18 09:50:51;;;;;;;28.08;16.98;;;;;;;16.97;100.00;101959.50;4896229;29;20048;-77
2022/10/18 09:53:40;;;;;;;28.05;16.17;;;;;;;17.12;100.00;101966.31;4907412;29;20067;-76
2022/10/18 09:56:26;;;;;;;25.02;15.48;;;;;;;17.08;100.00;101964.63;4910594;29;20056;-78
2022/10/18 09:58:53;;;;;;;19.05;14.15;;;;;;;17.06;100.00;101965.53;4909968;29;20052;-77
2022/10/18 10:01:27;;;;;;;21.52;12.73;;;;;;;17.02;100.00;101967.34;4895489;29;20048;-78
2022/10/18 10:03:53;;;;;;;22.20;14.45;;;;;;;17.05;100.00;101967.28;4911185;29;20055;-77
2022/10/18 10:06:33;;;;;;;23.88;14.13;;;;;;;17.11;98.66;101975.16;4913564;29;20452;-77
2022/10/18 10:09:17;;;;;;;23.58;14.90;;;;;;;17.33;99.13;101973.03;4916548;29;20071;-77
2022/10/18 10:11:50;;;;;;;26.02;15.02;;;;;;;17.57;96.98;101959.44;4890677;29;20070;-76
2022/10/18 10:14:26;;;;;;;23.38;15.63;;;;;;;17.78;95.21;101969.66;4930008;29;20054;-78
2022/10/18 10:17:21;;;;;;;22.83;13.90;;;;;;;17.89;93.73;101968.59;4917189;29;20601;-76
2022/10/18 10:20:14;;;;;;;24.00;14.88;;;;;;;17.72;93.51;101968.84;4912242;29;20143;-76
2022/10/18 10:22:43;;;;;;;24.67;12.60;;;;;;;17.62;92.89;101981.41;4923910;29;20816;-75
2022/10/18 10:25:31;;;;;;;20.17;11.88;;;;;;;17.67;93.21;101972.47;4911316;29;20044;-77
2022/10/18 10:28:07;;;;;;;20.38;10.93;;;;;;;17.93;92.13;101975.59;4914632;29;20048;-76
2022/10/18 10:30:36;;;;;;;20.25;11.05;;;;;;;18.32;90.35;101973.94;4911559;29;20491;-76
2022/10/18 10:33:03;;;;;;;19.80;11.43;;;;;;;18.56;87.07;101978.75;4913520;29;20716;-75
2022/10/18 10:35:34;;;;;;;19.52;13.00;;;;;;;18.76;86.58;101981.88;4905974;29;20395;-74
2022/10/18 10:38:01;;;;;;;21.50;13.85;;;;;;;18.90;86.10;101980.72;4906627;29;20041;-79
2022/10/18 10:40:34;;;;;;;17.58;11.60;;;;;;;18.83;86.20;101979.94;4906548;29;20036;-75
2022/10/18 10:43:25;;;;;;;21.67;14.68;;;;;;;18.56;86.80;101978.75;4920545;29;20491;-75
2022/10/18 10:46:10;;;;;;;19.35;13.15;;;;;;;18.19;87.74;101968.00;4912434;29;20052;-76
2022/10/18 10:48:52;;;;;;;18.83;12.18;;;;;;;18.10;89.20;101965.53;4913021;29;20090;-76
2022/10/18 10:51:35;;;;;;;16.65;12.30;;;;;;;17.96;88.59;101971.09;4899622;29;20062;-79
2022/10/18 10:54:11;;;;;;;18.02;11.35;;;;;;;17.80;88.77;101974.91;4904802;29;20072;-78
2022/10/18 10:57:20;;;;;;;14.10;11.30;;;;;;;17.60;89.10;101968.19;4912412;29;20044;-79
2022/10/18 10:59:53;;;;;;;19.77;12.15;;;;;;;17.39;89.85;101974.72;4909325;29;20538;-77
2022/10/18 11:02:31;;;;;;;;;;;;;;;17.70;87.94;101979.47;4913956;29;20081;-77
2022/10/18 11:05:22;;;;;;;17.52;11.93;;;;;;;18.00;85.80;101970.16;4887902;29;20275;-77
2022/10/18 11:08:02;;;;;;;17.95;11.43;;;;;;;18.09;84.45;101976.19;4922286;29;20063;-76
2022/10/18 11:10:32;;;;;;;19.55;11.50;;;;;;;17.98;84.86;101976.38;4909414;29;20052;-78
2022/10/18 11:13:23;;;;;;;19.85;12.23;;;;;;;17.83;84.17;101961.59;4909636;29;20507;-75
2022/10/18 11:15:58;;;;;;;16.15;11.75;;;;;;;17.50;86.35;101962.16;4908429;29;20115;-75
2022/10/18 11:18:35;;;;;;;15.48;11.70;;;;;;;17.38;87.44;101972.09;4913011;29;20534;-76
2022/10/18 11:21:18;;;;;;;16.45;10.07;;;;;;;17.32;88.15;101965.13;4911924;29;20163;-75
2022/10/18 11:23:45;;;;;;;27.27;12.77;;;;;;;17.22;88.58;101963.53;4911193;29;20044;-77
2022/10/18 11:26:12;;;;;;;21.73;11.13;;;;;;;17.16;88.75;101965.38;4899281;29;20054;-75
2022/10/18 11:29:09;;;;;;;22.45;11.25;;;;;;;17.16;88.45;101964.50;4912702;29;20070;-77
2022/10/18 11:32:00;;;;;;;17.65;9.70;;;;;;;17.27;87.96;101959.03;4911067;29;20506;-77